sensor_id;sensor_type;location;lat;lon;timestamp;P1;durP1;ratioP1;P2;durP2;ratioP2
19891;SDS011;10108;50.142;8.724;2023-01-25T00:00:54;18.42;;;11.85;;
19891;SDS011;10108;50.142;8.724;2023-01-25T00:03:20;18.55;;;12.57;;
19891;SDS011;10108;50.142;8.724;2023-01-25T00:05:46;21.02;;;12.82;;
19891;SDS011;10108;50.142;8.724;2023-01-25T00:08:12;20.40;;;12.98;;
19891;SDS011;10108;50.142;8.724;2023-01-25T00:10:38;21.73;;;12.15;;
19891;SDS011;10108;50.142;8.724;2023-01-25T00:13:04;22.13;;;12.18;;
19891;SDS011;10108;50.142;8.724;2023-01-25T00:15:31;19.00;;;11.77;;
19891;SDS011;10108;50.142;8.724;2023-01-25T00:17:57;21.17;;;12.15;;
19891;SDS011;10108;50.142;8.724;2023-01-25T00:20:23;20.88;;;12.43;;
19891;SDS011;10108;50.142;8.724;2023-01-25T00:22:49;22.08;;;12.70;;
19891;SDS011;10108;50.142;8.724;2023-01-25T00:25:15;21.55;;;12.93;;
19891;SDS011;10108;50.142;8.724;2023-01-25T00:27:41;19.50;;;12.45;;
19891;SDS011;10108;50.142;8.724;2023-01-25T00:30:07;19.92;;;12.60;;
19891;SDS011;10108;50.142;8.724;2023-01-25T00:35:42;19.92;;;12.32;;
19891;SDS011;10108;50.142;8.724;2023-01-25T00:38:43;18.92;;;12.10;;
19891;SDS011;10108;50.142;8.724;2023-01-25T00:41:11;19.88;;;12.45;;
19891;SDS011;10108;50.142;8.724;2023-01-25T00:43:37;20.13;;;12.60;;
19891;SDS011;10108;50.142;8.724;2023-01-25T00:46:03;21.30;;;12.93;;
19891;SDS011;10108;50.142;8.724;2023-01-25T00:48:29;22.08;;;12.75;;
19891;SDS011;10108;50.142;8.724;2023-01-25T00:50:59;19.45;;;12.23;;
19891;SDS011;10108;50.142;8.724;2023-01-25T00:53:26;19.17;;;12.68;;
19891;SDS011;10108;50.142;8.724;2023-01-25T00:55:52;19.98;;;11.95;;
19891;SDS011;10108;50.142;8.724;2023-01-25T00:58:18;20.27;;;12.02;;
19891;SDS011;10108;50.142;8.724;2023-01-25T01:00:45;22.13;;;12.38;;
19891;SDS011;10108;50.142;8.724;2023-01-25T01:03:11;19.67;;;11.88;;
19891;SDS011;10108;50.142;8.724;2023-01-25T01:05:37;18.33;;;11.90;;
19891;SDS011;10108;50.142;8.724;2023-01-25T01:10:48;17.05;;;11.20;;
19891;SDS011;10108;50.142;8.724;2023-01-25T01:20:37;21.33;;;11.18;;
19891;SDS011;10108;50.142;8.724;2023-01-25T01:23:03;18.25;;;11.30;;
19891;SDS011;10108;50.142;8.724;2023-01-25T01:25:29;17.98;;;12.15;;
19891;SDS011;10108;50.142;8.724;2023-01-25T01:27:57;18.80;;;11.68;;
19891;SDS011;10108;50.142;8.724;2023-01-25T01:30:23;17.40;;;10.70;;
19891;SDS011;10108;50.142;8.724;2023-01-25T01:32:50;17.15;;;11.02;;
19891;SDS011;10108;50.142;8.724;2023-01-25T01:35:17;16.73;;;11.05;;
19891;SDS011;10108;50.142;8.724;2023-01-25T01:37:43;18.05;;;11.80;;
19891;SDS011;10108;50.142;8.724;2023-01-25T01:40:12;18.48;;;11.48;;
19891;SDS011;10108;50.142;8.724;2023-01-25T01:42:56;17.83;;;11.07;;
19891;SDS011;10108;50.142;8.724;2023-01-25T01:50:53;18.73;;;11.82;;
19891;SDS011;10108;50.142;8.724;2023-01-25T01:53:23;19.70;;;11.25;;
19891;SDS011;10108;50.142;8.724;2023-01-25T01:55:50;17.33;;;11.27;;
19891;SDS011;10108;50.142;8.724;2023-01-25T01:58:19;17.27;;;10.82;;
19891;SDS011;10108;50.142;8.724;2023-01-25T02:00:46;17.73;;;11.07;;
19891;SDS011;10108;50.142;8.724;2023-01-25T02:03:12;16.85;;;11.40;;
19891;SDS011;10108;50.142;8.724;2023-01-25T02:08:15;16.83;;;10.65;;
19891;SDS011;10108;50.142;8.724;2023-01-25T02:10:43;17.52;;;10.93;;
19891;SDS011;10108;50.142;8.724;2023-01-25T02:13:10;15.95;;;10.93;;
19891;SDS011;10108;50.142;8.724;2023-01-25T02:15:37;16.58;;;10.57;;
19891;SDS011;10108;50.142;8.724;2023-01-25T02:18:10;19.05;;;11.10;;
19891;SDS011;10108;50.142;8.724;2023-01-25T02:20:38;17.65;;;11.23;;
19891;SDS011;10108;50.142;8.724;2023-01-25T02:23:25;16.05;;;10.52;;
19891;SDS011;10108;50.142;8.724;2023-01-25T02:25:59;17.40;;;11.05;;
19891;SDS011;10108;50.142;8.724;2023-01-25T02:28:32;17.45;;;11.35;;
19891;SDS011;10108;50.142;8.724;2023-01-25T02:31:03;17.48;;;11.20;;
19891;SDS011;10108;50.142;8.724;2023-01-25T02:33:29;17.35;;;11.52;;
19891;SDS011;10108;50.142;8.724;2023-01-25T02:35:58;18.77;;;11.60;;
19891;SDS011;10108;50.142;8.724;2023-01-25T02:38:32;18.40;;;11.50;;
19891;SDS011;10108;50.142;8.724;2023-01-25T02:41:03;15.38;;;10.40;;
19891;SDS011;10108;50.142;8.724;2023-01-25T02:43:34;18.98;;;11.55;;
19891;SDS011;10108;50.142;8.724;2023-01-25T02:46:04;16.90;;;10.85;;
19891;SDS011;10108;50.142;8.724;2023-01-25T02:48:37;16.73;;;11.20;;
19891;SDS011;10108;50.142;8.724;2023-01-25T02:51:08;16.38;;;10.77;;
19891;SDS011;10108;50.142;8.724;2023-01-25T02:53:34;17.50;;;11.07;;
19891;SDS011;10108;50.142;8.724;2023-01-25T02:56:01;16.38;;;11.05;;
19891;SDS011;10108;50.142;8.724;2023-01-25T02:58:29;20.38;;;11.63;;
19891;SDS011;10108;50.142;8.724;2023-01-25T03:00:56;18.08;;;11.30;;
19891;SDS011;10108;50.142;8.724;2023-01-25T03:03:24;17.15;;;11.15;;
19891;SDS011;10108;50.142;8.724;2023-01-25T03:05:52;17.92;;;11.45;;
19891;SDS011;10108;50.142;8.724;2023-01-25T03:08:18;19.00;;;11.75;;
19891;SDS011;10108;50.142;8.724;2023-01-25T03:10:47;18.00;;;12.00;;
19891;SDS011;10108;50.142;8.724;2023-01-25T03:13:13;20.50;;;12.57;;
19891;SDS011;10108;50.142;8.724;2023-01-25T03:15:39;17.92;;;12.02;;
19891;SDS011;10108;50.142;8.724;2023-01-25T03:18:06;17.67;;;11.40;;
19891;SDS011;10108;50.142;8.724;2023-01-25T03:20:32;19.10;;;11.82;;
19891;SDS011;10108;50.142;8.724;2023-01-25T03:22:58;17.52;;;11.52;;
19891;SDS011;10108;50.142;8.724;2023-01-25T03:25:25;19.02;;;12.02;;
19891;SDS011;10108;50.142;8.724;2023-01-25T03:27:58;17.65;;;10.50;;
19891;SDS011;10108;50.142;8.724;2023-01-25T03:30:25;16.85;;;11.40;;
19891;SDS011;10108;50.142;8.724;2023-01-25T03:32:52;15.52;;;10.60;;
19891;SDS011;10108;50.142;8.724;2023-01-25T03:35:18;18.13;;;11.70;;
19891;SDS011;10108;50.142;8.724;2023-01-25T03:37:45;20.30;;;12.10;;
19891;SDS011;10108;50.142;8.724;2023-01-25T03:40:12;18.65;;;11.35;;
19891;SDS011;10108;50.142;8.724;2023-01-25T03:42:42;18.50;;;11.60;;
19891;SDS011;10108;50.142;8.724;2023-01-25T03:45:09;16.05;;;10.82;;
19891;SDS011;10108;50.142;8.724;2023-01-25T03:47:39;17.27;;;11.27;;
19891;SDS011;10108;50.142;8.724;2023-01-25T03:50:07;18.17;;;11.40;;
19891;SDS011;10108;50.142;8.724;2023-01-25T03:52:34;17.40;;;11.27;;
19891;SDS011;10108;50.142;8.724;2023-01-25T03:55:06;17.00;;;11.70;;
19891;SDS011;10108;50.142;8.724;2023-01-25T03:57:37;16.60;;;10.52;;
19891;SDS011;10108;50.142;8.724;2023-01-25T04:00:04;18.25;;;11.55;;
19891;SDS011;10108;50.142;8.724;2023-01-25T04:02:40;18.90;;;11.88;;
19891;SDS011;10108;50.142;8.724;2023-01-25T04:05:09;18.15;;;11.48;;
19891;SDS011;10108;50.142;8.724;2023-01-25T04:07:36;18.58;;;11.38;;
19891;SDS011;10108;50.142;8.724;2023-01-25T04:10:03;18.23;;;11.63;;
19891;SDS011;10108;50.142;8.724;2023-01-25T04:12:31;18.33;;;11.00;;
19891;SDS011;10108;50.142;8.724;2023-01-25T04:14:58;17.98;;;11.18;;
19891;SDS011;10108;50.142;8.724;2023-01-25T04:17:25;15.57;;;10.82;;
19891;SDS011;10108;50.142;8.724;2023-01-25T04:20:00;17.23;;;11.00;;
19891;SDS011;10108;50.142;8.724;2023-01-25T04:22:33;15.93;;;10.35;;
19891;SDS011;10108;50.142;8.724;2023-01-25T04:25:01;17.30;;;10.60;;
19891;SDS011;10108;50.142;8.724;2023-01-25T04:27:28;15.75;;;10.30;;
19891;SDS011;10108;50.142;8.724;2023-01-25T04:30:03;15.57;;;10.55;;
19891;SDS011;10108;50.142;8.724;2023-01-25T04:32:33;17.15;;;10.90;;
19891;SDS011;10108;50.142;8.724;2023-01-25T04:35:01;17.38;;;11.32;;
19891;SDS011;10108;50.142;8.724;2023-01-25T04:37:28;17.70;;;11.35;;
19891;SDS011;10108;50.142;8.724;2023-01-25T04:39:57;17.75;;;11.23;;
19891;SDS011;10108;50.142;8.724;2023-01-25T04:42:24;15.55;;;10.73;;
19891;SDS011;10108;50.142;8.724;2023-01-25T04:44:54;17.48;;;11.88;;
19891;SDS011;10108;50.142;8.724;2023-01-25T04:47:20;16.75;;;11.02;;
19891;SDS011;10108;50.142;8.724;2023-01-25T04:49:46;19.00;;;12.07;;
19891;SDS011;10108;50.142;8.724;2023-01-25T04:52:16;17.45;;;11.68;;
19891;SDS011;10108;50.142;8.724;2023-01-25T04:54:42;19.25;;;12.07;;
19891;SDS011;10108;50.142;8.724;2023-01-25T04:57:10;20.25;;;12.52;;
19891;SDS011;10108;50.142;8.724;2023-01-25T04:59:38;17.00;;;11.30;;
19891;SDS011;10108;50.142;8.724;2023-01-25T05:02:04;16.45;;;11.18;;
19891;SDS011;10108;50.142;8.724;2023-01-25T05:04:30;18.80;;;11.90;;
19891;SDS011;10108;50.142;8.724;2023-01-25T05:06:56;17.08;;;12.10;;
19891;SDS011;10108;50.142;8.724;2023-01-25T05:09:22;20.77;;;12.77;;
19891;SDS011;10108;50.142;8.724;2023-01-25T05:11:49;18.02;;;12.18;;
19891;SDS011;10108;50.142;8.724;2023-01-25T05:14:23;18.83;;;12.95;;
19891;SDS011;10108;50.142;8.724;2023-01-25T05:16:50;17.98;;;12.25;;
19891;SDS011;10108;50.142;8.724;2023-01-25T05:19:17;19.23;;;13.07;;
19891;SDS011;10108;50.142;8.724;2023-01-25T05:21:52;18.40;;;12.65;;
19891;SDS011;10108;50.142;8.724;2023-01-25T05:24:29;18.38;;;12.52;;
19891;SDS011;10108;50.142;8.724;2023-01-25T05:26:58;17.63;;;12.20;;
19891;SDS011;10108;50.142;8.724;2023-01-25T05:29:27;20.30;;;12.05;;
19891;SDS011;10108;50.142;8.724;2023-01-25T05:31:59;19.70;;;11.95;;
19891;SDS011;10108;50.142;8.724;2023-01-25T05:34:26;18.98;;;13.02;;
19891;SDS011;10108;50.142;8.724;2023-01-25T05:36:52;18.77;;;12.38;;
19891;SDS011;10108;50.142;8.724;2023-01-25T05:39:19;18.95;;;12.25;;
19891;SDS011;10108;50.142;8.724;2023-01-25T05:41:47;18.73;;;12.63;;
19891;SDS011;10108;50.142;8.724;2023-01-25T05:44:13;21.52;;;12.73;;
19891;SDS011;10108;50.142;8.724;2023-01-25T05:46:44;19.00;;;12.65;;
19891;SDS011;10108;50.142;8.724;2023-01-25T05:49:11;20.48;;;13.00;;
19891;SDS011;10108;50.142;8.724;2023-01-25T05:51:40;18.30;;;12.32;;
19891;SDS011;10108;50.142;8.724;2023-01-25T05:54:08;18.83;;;12.27;;
19891;SDS011;10108;50.142;8.724;2023-01-25T05:56:38;19.77;;;12.27;;
19891;SDS011;10108;50.142;8.724;2023-01-25T05:59:05;21.02;;;13.52;;
19891;SDS011;10108;50.142;8.724;2023-01-25T06:01:31;20.75;;;13.82;;
19891;SDS011;10108;50.142;8.724;2023-01-25T06:03:58;20.92;;;13.68;;
19891;SDS011;10108;50.142;8.724;2023-01-25T06:06:24;21.20;;;14.00;;
19891;SDS011;10108;50.142;8.724;2023-01-25T06:08:51;18.88;;;13.07;;
19891;SDS011;10108;50.142;8.724;2023-01-25T06:11:20;20.15;;;13.27;;
19891;SDS011;10108;50.142;8.724;2023-01-25T06:13:48;18.20;;;12.57;;
19891;SDS011;10108;50.142;8.724;2023-01-25T06:16:16;18.80;;;13.27;;
19891;SDS011;10108;50.142;8.724;2023-01-25T06:19:07;19.95;;;12.35;;
19891;SDS011;10108;50.142;8.724;2023-01-25T06:21:42;17.95;;;12.20;;
19891;SDS011;10108;50.142;8.724;2023-01-25T06:24:09;18.83;;;12.52;;
19891;SDS011;10108;50.142;8.724;2023-01-25T06:26:35;20.35;;;12.00;;
19891;SDS011;10108;50.142;8.724;2023-01-25T06:29:03;17.42;;;12.02;;
19891;SDS011;10108;50.142;8.724;2023-01-25T06:31:31;21.00;;;12.65;;
19891;SDS011;10108;50.142;8.724;2023-01-25T06:33:57;19.13;;;12.45;;
19891;SDS011;10108;50.142;8.724;2023-01-25T06:36:26;20.50;;;12.70;;
19891;SDS011;10108;50.142;8.724;2023-01-25T06:38:52;18.55;;;12.23;;
19891;SDS011;10108;50.142;8.724;2023-01-25T06:41:18;18.38;;;12.45;;
19891;SDS011;10108;50.142;8.724;2023-01-25T06:43:44;18.40;;;12.27;;
19891;SDS011;10108;50.142;8.724;2023-01-25T06:46:12;19.02;;;12.23;;
19891;SDS011;10108;50.142;8.724;2023-01-25T06:48:38;17.77;;;12.20;;
19891;SDS011;10108;50.142;8.724;2023-01-25T06:51:08;18.80;;;12.10;;
19891;SDS011;10108;50.142;8.724;2023-01-25T06:53:36;18.67;;;12.05;;
19891;SDS011;10108;50.142;8.724;2023-01-25T06:56:08;19.30;;;11.52;;
19891;SDS011;10108;50.142;8.724;2023-01-25T06:58:36;19.13;;;12.60;;
19891;SDS011;10108;50.142;8.724;2023-01-25T07:01:04;18.73;;;12.68;;
19891;SDS011;10108;50.142;8.724;2023-01-25T07:03:32;19.67;;;12.48;;
19891;SDS011;10108;50.142;8.724;2023-01-25T07:06:02;18.67;;;12.18;;
19891;SDS011;10108;50.142;8.724;2023-01-25T07:08:31;17.88;;;12.23;;
19891;SDS011;10108;50.142;8.724;2023-01-25T07:10:59;20.08;;;13.25;;
19891;SDS011;10108;50.142;8.724;2023-01-25T07:13:28;18.52;;;12.63;;
19891;SDS011;10108;50.142;8.724;2023-01-25T07:15:56;19.60;;;12.88;;
19891;SDS011;10108;50.142;8.724;2023-01-25T07:18:27;19.20;;;12.55;;
19891;SDS011;10108;50.142;8.724;2023-01-25T07:21:04;18.95;;;12.60;;
19891;SDS011;10108;50.142;8.724;2023-01-25T07:23:35;19.45;;;12.85;;
19891;SDS011;10108;50.142;8.724;2023-01-25T07:26:03;19.48;;;13.32;;
19891;SDS011;10108;50.142;8.724;2023-01-25T07:28:31;20.40;;;13.18;;
19891;SDS011;10108;50.142;8.724;2023-01-25T07:31:04;20.45;;;13.18;;
19891;SDS011;10108;50.142;8.724;2023-01-25T07:33:31;21.58;;;13.68;;
19891;SDS011;10108;50.142;8.724;2023-01-25T07:36:01;21.40;;;13.27;;
19891;SDS011;10108;50.142;8.724;2023-01-25T07:38:28;21.38;;;13.32;;
19891;SDS011;10108;50.142;8.724;2023-01-25T07:40:54;21.65;;;12.88;;
19891;SDS011;10108;50.142;8.724;2023-01-25T07:43:21;20.30;;;13.18;;
19891;SDS011;10108;50.142;8.724;2023-01-25T07:45:47;20.92;;;12.75;;
19891;SDS011;10108;50.142;8.724;2023-01-25T07:48:14;19.02;;;12.48;;
19891;SDS011;10108;50.142;8.724;2023-01-25T07:50:41;20.02;;;12.73;;
19891;SDS011;10108;50.142;8.724;2023-01-25T07:53:11;21.67;;;12.98;;
19891;SDS011;10108;50.142;8.724;2023-01-25T07:55:38;21.23;;;12.90;;
19891;SDS011;10108;50.142;8.724;2023-01-25T07:58:07;21.75;;;12.90;;
19891;SDS011;10108;50.142;8.724;2023-01-25T08:00:35;19.98;;;12.57;;
19891;SDS011;10108;50.142;8.724;2023-01-25T08:03:01;21.88;;;12.80;;
19891;SDS011;10108;50.142;8.724;2023-01-25T08:05:27;19.58;;;11.77;;
19891;SDS011;10108;50.142;8.724;2023-01-25T08:07:53;18.70;;;12.00;;
19891;SDS011;10108;50.142;8.724;2023-01-25T08:10:19;19.67;;;12.25;;
19891;SDS011;10108;50.142;8.724;2023-01-25T08:12:45;18.00;;;11.75;;
19891;SDS011;10108;50.142;8.724;2023-01-25T08:15:12;19.75;;;12.25;;
19891;SDS011;10108;50.142;8.724;2023-01-25T08:17:38;18.45;;;11.88;;
19891;SDS011;10108;50.142;8.724;2023-01-25T08:20:05;20.52;;;12.43;;
19891;SDS011;10108;50.142;8.724;2023-01-25T08:22:32;19.20;;;11.80;;
19891;SDS011;10108;50.142;8.724;2023-01-25T08:24:58;17.52;;;11.60;;
19891;SDS011;10108;50.142;8.724;2023-01-25T08:27:26;18.38;;;12.02;;
19891;SDS011;10108;50.142;8.724;2023-01-25T08:29:53;20.65;;;12.88;;
19891;SDS011;10108;50.142;8.724;2023-01-25T08:32:19;19.92;;;12.93;;
19891;SDS011;10108;50.142;8.724;2023-01-25T08:34:46;20.52;;;12.35;;
19891;SDS011;10108;50.142;8.724;2023-01-25T08:37:12;21.60;;;12.82;;
19891;SDS011;10108;50.142;8.724;2023-01-25T08:39:38;20.67;;;12.18;;
19891;SDS011;10108;50.142;8.724;2023-01-25T08:42:04;18.38;;;11.98;;
19891;SDS011;10108;50.142;8.724;2023-01-25T08:44:31;18.95;;;12.15;;
19891;SDS011;10108;50.142;8.724;2023-01-25T08:46:57;17.80;;;11.20;;
19891;SDS011;10108;50.142;8.724;2023-01-25T08:49:23;19.75;;;12.40;;
19891;SDS011;10108;50.142;8.724;2023-01-25T08:51:51;21.00;;;12.82;;
19891;SDS011;10108;50.142;8.724;2023-01-25T08:54:17;19.33;;;12.55;;
19891;SDS011;10108;50.142;8.724;2023-01-25T08:56:44;19.25;;;12.48;;
19891;SDS011;10108;50.142;8.724;2023-01-25T08:59:10;21.77;;;13.15;;
19891;SDS011;10108;50.142;8.724;2023-01-25T09:01:37;21.75;;;12.93;;
19891;SDS011;10108;50.142;8.724;2023-01-25T09:04:03;18.98;;;11.95;;
19891;SDS011;10108;50.142;8.724;2023-01-25T09:06:29;21.02;;;12.73;;
19891;SDS011;10108;50.142;8.724;2023-01-25T09:08:57;19.15;;;12.32;;
19891;SDS011;10108;50.142;8.724;2023-01-25T09:11:24;19.75;;;12.27;;
19891;SDS011;10108;50.142;8.724;2023-01-25T09:13:51;20.70;;;12.68;;
19891;SDS011;10108;50.142;8.724;2023-01-25T09:16:18;19.20;;;11.73;;
19891;SDS011;10108;50.142;8.724;2023-01-25T09:18:53;19.38;;;11.45;;
19891;SDS011;10108;50.142;8.724;2023-01-25T09:21:21;19.15;;;11.85;;
19891;SDS011;10108;50.142;8.724;2023-01-25T09:23:47;20.80;;;12.15;;
19891;SDS011;10108;50.142;8.724;2023-01-25T09:26:15;20.90;;;13.20;;
19891;SDS011;10108;50.142;8.724;2023-01-25T09:28:44;21.77;;;13.60;;
19891;SDS011;10108;50.142;8.724;2023-01-25T09:31:13;20.67;;;12.48;;
19891;SDS011;10108;50.142;8.724;2023-01-25T09:34:03;20.92;;;12.90;;
19891;SDS011;10108;50.142;8.724;2023-01-25T09:36:29;19.42;;;12.50;;
19891;SDS011;10108;50.142;8.724;2023-01-25T09:38:55;21.08;;;12.13;;
19891;SDS011;10108;50.142;8.724;2023-01-25T09:46:59;18.58;;;12.05;;
19891;SDS011;10108;50.142;8.724;2023-01-25T09:52:08;25.50;;;13.70;;
19891;SDS011;10108;50.142;8.724;2023-01-25T09:54:38;21.80;;;12.70;;
19891;SDS011;10108;50.142;8.724;2023-01-25T09:57:16;26.77;;;16.23;;
19891;SDS011;10108;50.142;8.724;2023-01-25T09:59:46;24.25;;;13.95;;
19891;SDS011;10108;50.142;8.724;2023-01-25T10:02:19;23.95;;;13.80;;
19891;SDS011;10108;50.142;8.724;2023-01-25T10:04:56;21.73;;;13.10;;
19891;SDS011;10108;50.142;8.724;2023-01-25T10:07:33;21.83;;;12.55;;
19891;SDS011;10108;50.142;8.724;2023-01-25T10:10:20;22.25;;;12.82;;
19891;SDS011;10108;50.142;8.724;2023-01-25T10:13:10;23.60;;;13.48;;
19891;SDS011;10108;50.142;8.724;2023-01-25T10:15:42;24.15;;;13.73;;
19891;SDS011;10108;50.142;8.724;2023-01-25T10:20:52;22.85;;;13.68;;
19891;SDS011;10108;50.142;8.724;2023-01-25T10:26:09;22.02;;;12.90;;
19891;SDS011;10108;50.142;8.724;2023-01-25T10:28:58;23.52;;;13.40;;
19891;SDS011;10108;50.142;8.724;2023-01-25T10:31:39;20.88;;;12.98;;
19891;SDS011;10108;50.142;8.724;2023-01-25T10:34:19;25.20;;;13.93;;
19891;SDS011;10108;50.142;8.724;2023-01-25T10:36:52;22.63;;;13.70;;
19891;SDS011;10108;50.142;8.724;2023-01-25T10:39:21;22.67;;;13.63;;
19891;SDS011;10108;50.142;8.724;2023-01-25T10:42:03;23.10;;;13.30;;
19891;SDS011;10108;50.142;8.724;2023-01-25T10:44:35;20.63;;;12.73;;
19891;SDS011;10108;50.142;8.724;2023-01-25T10:49:47;22.85;;;13.65;;
19891;SDS011;10108;50.142;8.724;2023-01-25T10:54:47;23.45;;;13.50;;
19891;SDS011;10108;50.142;8.724;2023-01-25T10:57:17;22.58;;;12.95;;
19891;SDS011;10108;50.142;8.724;2023-01-25T10:59:47;22.58;;;13.93;;
19891;SDS011;10108;50.142;8.724;2023-01-25T11:07:44;20.52;;;13.00;;
19891;SDS011;10108;50.142;8.724;2023-01-25T11:10:27;21.83;;;13.18;;
19891;SDS011;10108;50.142;8.724;2023-01-25T11:13:10;21.38;;;13.55;;
19891;SDS011;10108;50.142;8.724;2023-01-25T11:15:44;20.30;;;12.88;;
19891;SDS011;10108;50.142;8.724;2023-01-25T11:18:14;21.48;;;12.50;;
19891;SDS011;10108;50.142;8.724;2023-01-25T11:20:44;21.60;;;12.55;;
19891;SDS011;10108;50.142;8.724;2023-01-25T11:23:23;22.05;;;12.38;;
19891;SDS011;10108;50.142;8.724;2023-01-25T11:25:51;21.02;;;12.98;;
19891;SDS011;10108;50.142;8.724;2023-01-25T11:28:19;22.27;;;13.13;;
19891;SDS011;10108;50.142;8.724;2023-01-25T11:30:45;22.58;;;12.75;;
19891;SDS011;10108;50.142;8.724;2023-01-25T11:33:13;20.92;;;12.60;;
19891;SDS011;10108;50.142;8.724;2023-01-25T11:38:56;20.88;;;12.70;;
19891;SDS011;10108;50.142;8.724;2023-01-25T11:46:53;20.77;;;12.60;;
19891;SDS011;10108;50.142;8.724;2023-01-25T11:55:28;21.05;;;12.93;;
19891;SDS011;10108;50.142;8.724;2023-01-25T11:58:06;24.67;;;13.35;;
19891;SDS011;10108;50.142;8.724;2023-01-25T12:01:17;19.15;;;12.02;;
19891;SDS011;10108;50.142;8.724;2023-01-25T12:09:21;20.33;;;12.32;;
19891;SDS011;10108;50.142;8.724;2023-01-25T12:17:20;22.77;;;12.88;;
19891;SDS011;10108;50.142;8.724;2023-01-25T12:31:41;19.13;;;12.70;;
19891;SDS011;10108;50.142;8.724;2023-01-25T12:34:14;20.85;;;12.60;;
19891;SDS011;10108;50.142;8.724;2023-01-25T12:36:47;21.02;;;12.05;;
19891;SDS011;10108;50.142;8.724;2023-01-25T12:42:11;23.33;;;12.85;;
19891;SDS011;10108;50.142;8.724;2023-01-25T12:44:58;20.42;;;12.75;;
19891;SDS011;10108;50.142;8.724;2023-01-25T12:50:21;25.35;;;14.40;;
19891;SDS011;10108;50.142;8.724;2023-01-25T12:55:46;26.33;;;14.95;;
19891;SDS011;10108;50.142;8.724;2023-01-25T13:01:22;20.17;;;12.43;;
19891;SDS011;10108;50.142;8.724;2023-01-25T13:06:52;23.50;;;12.73;;
19891;SDS011;10108;50.142;8.724;2023-01-25T13:12:21;20.70;;;13.13;;
19891;SDS011;10108;50.142;8.724;2023-01-25T13:14:49;21.55;;;13.13;;
19891;SDS011;10108;50.142;8.724;2023-01-25T13:19:57;21.40;;;12.30;;
19891;SDS011;10108;50.142;8.724;2023-01-25T13:25:21;21.73;;;12.73;;
19891;SDS011;10108;50.142;8.724;2023-01-25T13:27:48;23.48;;;13.55;;
19891;SDS011;10108;50.142;8.724;2023-01-25T13:38:03;21.48;;;13.40;;
19891;SDS011;10108;50.142;8.724;2023-01-25T13:40:33;23.42;;;13.02;;
19891;SDS011;10108;50.142;8.724;2023-01-25T13:43:05;22.50;;;13.40;;
19891;SDS011;10108;50.142;8.724;2023-01-25T13:45:42;22.65;;;13.18;;
19891;SDS011;10108;50.142;8.724;2023-01-25T13:48:20;25.48;;;13.95;;
19891;SDS011;10108;50.142;8.724;2023-01-25T13:50:55;27.13;;;14.32;;
19891;SDS011;10108;50.142;8.724;2023-01-25T13:53:25;26.98;;;15.63;;
19891;SDS011;10108;50.142;8.724;2023-01-25T13:55:57;22.67;;;13.70;;
19891;SDS011;10108;50.142;8.724;2023-01-25T14:01:01;23.17;;;13.30;;
19891;SDS011;10108;50.142;8.724;2023-01-25T14:03:33;23.35;;;13.20;;
19891;SDS011;10108;50.142;8.724;2023-01-25T14:06:01;22.52;;;13.52;;
19891;SDS011;10108;50.142;8.724;2023-01-25T14:08:29;23.23;;;14.15;;
19891;SDS011;10108;50.142;8.724;2023-01-25T14:10:55;24.88;;;14.02;;
19891;SDS011;10108;50.142;8.724;2023-01-25T14:13:22;24.08;;;13.10;;
19891;SDS011;10108;50.142;8.724;2023-01-25T14:15:55;22.88;;;13.52;;
19891;SDS011;10108;50.142;8.724;2023-01-25T14:18:27;23.38;;;13.43;;
19891;SDS011;10108;50.142;8.724;2023-01-25T14:21:08;22.10;;;13.38;;
19891;SDS011;10108;50.142;8.724;2023-01-25T14:23:37;22.38;;;13.48;;
19891;SDS011;10108;50.142;8.724;2023-01-25T14:26:10;25.88;;;14.25;;
19891;SDS011;10108;50.142;8.724;2023-01-25T14:28:46;23.55;;;13.63;;
19891;SDS011;10108;50.142;8.724;2023-01-25T14:31:24;24.55;;;13.75;;
19891;SDS011;10108;50.142;8.724;2023-01-25T14:34:01;23.95;;;13.95;;
19891;SDS011;10108;50.142;8.724;2023-01-25T14:36:30;23.17;;;13.25;;
19891;SDS011;10108;50.142;8.724;2023-01-25T14:38:58;22.90;;;13.80;;
19891;SDS011;10108;50.142;8.724;2023-01-25T14:43:58;24.08;;;14.07;;
19891;SDS011;10108;50.142;8.724;2023-01-25T14:54:28;23.92;;;14.18;;
19891;SDS011;10108;50.142;8.724;2023-01-25T14:57:01;24.40;;;14.15;;
19891;SDS011;10108;50.142;8.724;2023-01-25T14:59:38;27.75;;;14.13;;
19891;SDS011;10108;50.142;8.724;2023-01-25T15:02:16;23.50;;;14.13;;
19891;SDS011;10108;50.142;8.724;2023-01-25T15:07:46;32.45;;;17.50;;
19891;SDS011;10108;50.142;8.724;2023-01-25T15:10:21;29.35;;;16.83;;
19891;SDS011;10108;50.142;8.724;2023-01-25T15:15:23;25.05;;;14.98;;
19891;SDS011;10108;50.142;8.724;2023-01-25T15:17:51;27.15;;;14.93;;
19891;SDS011;10108;50.142;8.724;2023-01-25T15:20:33;28.23;;;15.30;;
19891;SDS011;10108;50.142;8.724;2023-01-25T15:25:52;22.20;;;13.57;;
19891;SDS011;10108;50.142;8.724;2023-01-25T15:28:20;27.50;;;14.80;;
19891;SDS011;10108;50.142;8.724;2023-01-25T15:30:48;25.45;;;15.50;;
19891;SDS011;10108;50.142;8.724;2023-01-25T15:33:18;27.58;;;15.57;;
19891;SDS011;10108;50.142;8.724;2023-01-25T15:35:49;27.20;;;15.02;;
19891;SDS011;10108;50.142;8.724;2023-01-25T15:38:16;27.67;;;15.40;;
19891;SDS011;10108;50.142;8.724;2023-01-25T15:40:42;26.15;;;14.23;;
19891;SDS011;10108;50.142;8.724;2023-01-25T15:43:10;29.73;;;16.05;;
19891;SDS011;10108;50.142;8.724;2023-01-25T15:45:41;33.83;;;18.40;;
19891;SDS011;10108;50.142;8.724;2023-01-25T15:48:11;31.42;;;17.65;;
19891;SDS011;10108;50.142;8.724;2023-01-25T15:50:39;36.35;;;19.52;;
19891;SDS011;10108;50.142;8.724;2023-01-25T15:53:05;30.25;;;17.20;;
19891;SDS011;10108;50.142;8.724;2023-01-25T15:55:36;28.27;;;15.85;;
19891;SDS011;10108;50.142;8.724;2023-01-25T15:58:03;27.77;;;16.50;;
19891;SDS011;10108;50.142;8.724;2023-01-25T16:00:29;29.10;;;15.73;;
19891;SDS011;10108;50.142;8.724;2023-01-25T16:02:56;30.65;;;17.15;;
19891;SDS011;10108;50.142;8.724;2023-01-25T16:05:22;29.85;;;18.30;;
19891;SDS011;10108;50.142;8.724;2023-01-25T16:07:48;31.70;;;17.48;;
19891;SDS011;10108;50.142;8.724;2023-01-25T16:10:19;32.25;;;18.98;;
19891;SDS011;10108;50.142;8.724;2023-01-25T16:12:47;35.58;;;18.80;;
19891;SDS011;10108;50.142;8.724;2023-01-25T16:15:13;51.08;;;26.10;;
19891;SDS011;10108;50.142;8.724;2023-01-25T16:17:40;40.78;;;20.15;;
19891;SDS011;10108;50.142;8.724;2023-01-25T16:20:06;32.97;;;17.98;;
19891;SDS011;10108;50.142;8.724;2023-01-25T16:22:38;34.50;;;19.17;;
19891;SDS011;10108;50.142;8.724;2023-01-25T16:25:04;37.63;;;20.45;;
19891;SDS011;10108;50.142;8.724;2023-01-25T16:27:33;41.88;;;19.50;;
19891;SDS011;10108;50.142;8.724;2023-01-25T16:30:01;32.38;;;17.17;;
19891;SDS011;10108;50.142;8.724;2023-01-25T16:32:28;33.45;;;18.77;;
19891;SDS011;10108;50.142;8.724;2023-01-25T16:34:55;31.45;;;16.83;;
19891;SDS011;10108;50.142;8.724;2023-01-25T16:37:21;35.70;;;19.48;;
19891;SDS011;10108;50.142;8.724;2023-01-25T16:39:47;36.53;;;18.42;;
19891;SDS011;10108;50.142;8.724;2023-01-25T16:42:14;31.38;;;17.25;;
19891;SDS011;10108;50.142;8.724;2023-01-25T16:44:40;29.23;;;16.15;;
19891;SDS011;10108;50.142;8.724;2023-01-25T16:47:08;28.38;;;16.38;;
19891;SDS011;10108;50.142;8.724;2023-01-25T16:49:38;28.55;;;15.85;;